Bernardsville, NJ (07924)

3:23 AM EST on February 10, 2016 (GMT -0500)
Roundtop | | Change Station
CLOSE
Current Station
Personal Weather Station
Location: Bernardsville, NJ
Elevation: 601 ft
Nearby Weather Stations
Active Advisory: Special Statement Active Notice: Public Information Statement

Elev 601 ft 40.72 °N, 74.58 °W | Updated 1 second ago

Overcast
Overcast
29.2 °F
Feels Like 29 °F
N
0.0
Wind Variable Wind from WSW
Gusts 3.0 mph

Today
High -- | Low -- °F
--% Chance of Precip.
Yesterday
High -- | Low -- °F
Precip. -- in
Pressure 29.57 in
Visibility 3.0 miles
Clouds Overcast 1700 ft
Windchill 29 °F
Dew Point 29 °F
Humidity 99%
Rainfall 0.00 in
Snow Depth Not available.
6:59 AM 5:26 PM
Waxing Crescent, 4% visible
SPECI KSMQ 100814Z AUTO 00000KT 3SM BR OVC017 M01/M02 A2957 RMK AO2 T10061017
Pressure 29.57 in
Visibility 3.0 miles
Clouds Overcast 1700 ft
Windchill 29 °F
Dew Point 29 °F
Humidity 99%
Rainfall 0.00 in
Snow Depth Not available.
6:59 AM 5:26 PM
Waxing Crescent, 4% visible
SPECI KSMQ 100814Z AUTO 00000KT 3SM BR OVC017 M01/M02 A2957 RMK AO2 T10061017

10-Day Weather Forecast

Almanac

Astronomy

Feb. 10, 2016 Rise Set
Actual Time
Civil Twilight
Nautical Twilight
Astronomical Twilight
Moon
Length of Visible Light
Length of Day
Tomorrow will be .
, % of the Moon is Illuminated

Today's Extremes

State Highs State Lows

Community

WunderPhotos

Upload Photos

1,891,826 photos uploaded!

WunderBlog® & News

Nearby

Air Quality

  Air Quality AQ Index Pollutant
Not available.

Snow Depth

Station Depth Elevation

Earthquake Activity

City Distance Mag. Time & Date
Minimum magnitude displayed is 2.5.

Coastal Water Temperatures

Place Temperature

Stations

Nearby Weather Stations

Station Location Temp. Windchill Dew Point Humidity Wind Precip. Elev Updated Type
                   

Watches & Warnings

Special Statement
Issued: 11:08 PM EST Feb. 9, 2016 – National Weather Service

... Refreezing on area roads possibile overnight along with patchy
light snow...

Temperatures will fall off into the 20's overnight which will
allow the potential for any untreated wet roadways to refreeze.
Also some patchy areas of light snow will be possibile with
additional snow accumulation of an inch or less. Please allow
extra time if traveling overnight.

Gaines

1108 PM EST Tue Feb 9 2016

... Refreezing on area roads possibile overnight along with patchy
light snow...

Temperatures will fall off into the 20's overnight which will
allow the potential for any untreated wet roadways to refreeze.
Also some patchy areas of light snow will be possibile with
additional snow accumulation of an inch or less. Please allow
extra time if traveling overnight.

Gaines